Time;durP1;ratioP1;P1;durP2;ratioP2;P2;SDS_P1;SDS_P2;PMS_P1;PMS_P2;Temp;Humidity;BMP_temperature;BMP_pressure;BME280_temperature;BME280_humidity;BME280_pressure;Samples;Min_cycle;Max_cycle;Signal;HPM_P1;HPM_P2
2022/08/26 00:02:36;;;;;;;7.67;6.80;;;;;;;24.22;54.38;98433.94;7058090;28;20687;-79
2022/08/26 00:05:57;;;;;;;7.63;6.37;;;;;;;24.40;54.12;98415.69;7028687;28;20278;-79
2022/08/26 00:09:20;;;;;;;7.10;6.40;;;;;;;24.32;54.04;98414.47;7029200;28;20218;-78
2022/08/26 00:12:42;;;;;;;8.07;6.20;;;;;;;24.21;54.74;98409.44;7028927;28;20232;-79
2022/08/26 00:16:05;;;;;;;8.50;6.47;;;;;;;24.27;54.48;98422.81;7029428;28;20709;-78
2022/08/26 00:19:26;;;;;;;6.90;6.30;;;;;;;24.35;54.38;98419.38;7029099;28;20212;-79
2022/08/26 00:22:48;;;;;;;6.93;5.87;;;;;;;24.54;53.05;98416.56;7029942;28;20229;-79
2022/08/26 00:26:12;;;;;;;6.90;6.23;;;;;;;24.29;53.39;98392.19;7029547;28;20697;-79
2022/08/26 00:29:34;;;;;;;8.10;6.27;;;;;;;24.42;53.48;98418.97;7028836;28;20207;-79
2022/08/26 00:32:56;;;;;;;7.33;6.63;;;;;;;23.84;55.70;98421.31;7029537;28;20242;-79
2022/08/26 00:36:18;;;;;;;7.63;6.80;;;;;;;23.95;55.23;98416.50;7029759;28;20326;-78
2022/08/26 00:39:40;;;;;;;7.77;6.97;;;;;;;24.00;54.97;98411.72;7017020;28;20198;-79
2022/08/26 00:43:04;;;;;;;7.60;6.27;;;;;;;24.11;55.08;98420.63;7006814;28;20274;-79
2022/08/26 00:46:30;;;;;;;9.23;7.40;;;;;;;23.81;55.75;98419.16;7006528;28;20786;-79
2022/08/26 00:49:51;;;;;;;8.90;6.93;;;;;;;24.14;54.54;98384.22;7005944;28;20355;-79
2022/08/26 00:53:21;;;;;;;8.27;7.10;;;;;;;24.16;54.28;98379.22;7005953;28;20231;-79
2022/08/26 00:56:46;;;;;;;6.97;6.27;;;;;;;24.28;53.52;98391.38;7005879;28;20212;-78
2022/08/26 01:00:14;;;;;;;7.57;6.80;;;;;;;24.25;53.94;98405.75;7005349;28;20193;-78
2022/08/26 01:03:37;;;;;;;8.50;7.47;;;;;;;23.73;55.87;98422.56;7005690;28;20203;-78
2022/08/26 01:06:59;;;;;;;10.67;7.33;;;;;;;23.41;57.37;98417.00;7005672;28;20241;-78
2022/08/26 01:10:23;;;;;;;8.60;7.70;;;;;;;23.45;56.98;98412.56;7005395;28;20681;-78
2022/08/26 01:13:45;;;;;;;7.93;7.23;;;;;;;23.88;55.80;98422.38;7005578;28;20266;-78
2022/08/26 01:17:08;;;;;;;11.53;7.57;;;;;;;23.85;55.94;98419.38;7005815;28;20663;-79
2022/08/26 01:20:36;;;;;;;8.57;7.63;;;;;;;23.86;55.96;98415.50;7005188;28;20296;-78
2022/08/26 01:23:59;;;;;;;8.90;7.03;;;;;;;23.75;55.99;98416.78;7005393;28;20225;-78
2022/08/26 01:27:22;;;;;;;8.27;7.47;;;;;;;23.87;55.97;98419.88;7005249;28;20867;-79
2022/08/26 01:30:45;;;;;;;10.63;7.47;;;;;;;23.87;55.72;98418.00;7005336;28;20209;-78
2022/08/26 01:34:10;;;;;;;9.70;8.50;;;;;;;23.60;56.61;98428.03;7003645;28;20694;-79
2022/08/26 01:37:35;;;;;;;10.47;8.03;;;;;;;23.20;57.66;98418.38;7005205;28;20237;-79
2022/08/26 01:40:58;;;;;;;8.97;8.03;;;;;;;23.14;58.20;98429.75;7005392;28;20604;-79
2022/08/26 01:44:22;;;;;;;15.50;8.70;;;;;;;23.49;57.41;98429.28;7004988;28;20271;-78
2022/08/26 01:47:44;;;;;;;9.93;7.87;;;;;;;23.77;56.47;98418.13;7003386;28;20248;-78
2022/08/26 01:51:09;;;;;;;8.97;8.07;;;;;;;23.74;56.26;98424.22;7004456;28;20300;-78
2022/08/26 01:54:31;;;;;;;12.03;8.57;;;;;;;23.66;55.98;98410.31;7004978;28;20327;-78
2022/08/26 01:57:55;;;;;;;13.20;8.50;;;;;;;23.48;56.95;98428.47;7004110;28;20625;-79
2022/08/26 02:01:17;;;;;;;9.27;8.37;;;;;;;23.58;56.90;98427.50;7004694;28;20709;-78
2022/08/26 02:04:43;;;;;;;9.33;8.23;;;;;;;23.56;56.77;98438.81;7020801;28;20236;-79
2022/08/26 02:08:06;;;;;;;8.53;7.63;;;;;;;23.83;55.33;98427.13;7014802;28;20211;-78
2022/08/26 02:11:27;;;;;;;11.13;9.97;;;;;;;22.95;58.07;98437.94;7004499;28;20696;-78
2022/08/26 02:14:52;;;;;;;12.53;8.37;;;;;;;22.79;58.04;98402.69;7004324;28;20309;-78
2022/08/26 02:18:14;;;;;;;12.53;8.67;;;;;;;23.23;58.21;98425.25;7004034;28;20186;-78
2022/08/26 02:21:36;;;;;;;11.87;8.53;;;;;;;23.34;57.06;98435.00;7003699;28;20812;-79
2022/08/26 02:25:00;;;;;;;10.10;9.00;;;;;;;23.20;57.25;98434.09;7003858;28;20260;-78
2022/08/26 02:28:21;;;;;;;10.33;8.83;;;;;;;23.13;57.19;98436.38;7003487;28;20259;-79
2022/08/26 02:31:44;;;;;;;10.90;9.60;;;;;;;23.16;57.50;98449.50;7003748;28;20283;-79
2022/08/26 02:35:07;;;;;;;14.03;9.53;;;;;;;23.37;57.05;98443.47;7002028;28;20316;-79
2022/08/26 02:38:29;;;;;;;15.13;9.57;;;;;;;23.18;57.72;98437.13;7003355;28;20242;-78
2022/08/26 02:41:50;;;;;;;12.33;9.30;;;;;;;23.26;57.35;98441.97;7003657;28;20200;-78
2022/08/26 02:45:12;;;;;;;10.50;9.40;;;;;;;23.27;57.36;98437.28;7003141;28;20363;-78
2022/08/26 02:48:35;;;;;;;12.83;9.73;;;;;;;23.39;57.09;98432.19;7003020;28;20215;-78
2022/08/26 02:51:56;;;;;;;14.33;9.97;;;;;;;23.06;57.78;98431.22;7003409;28;20231;-79
2022/08/26 02:55:18;;;;;;;14.87;9.83;;;;;;;22.83;58.34;98418.28;7003172;28;20271;-78
2022/08/26 02:58:40;;;;;;;12.90;9.83;;;;;;;23.04;58.17;98419.69;7002331;28;20295;-78
2022/08/26 03:02:01;;;;;;;11.70;9.67;;;;;;;23.18;57.33;98419.84;7003547;28;20298;-81
2022/08/26 03:05:25;;;;;;;11.10;8.90;;;;;;;23.03;57.57;98419.97;7005267;28;20315;-78
2022/08/26 03:08:46;;;;;;;15.70;9.77;;;;;;;23.16;56.96;98424.75;7010838;28;20302;-80
2022/08/26 03:12:08;;;;;;;15.40;10.83;;;;;;;22.64;58.88;98424.84;7010507;28;20259;-80
2022/08/26 03:15:31;;;;;;;15.00;10.63;;;;;;;22.74;59.06;98425.56;7003098;28;20231;-80
2022/08/26 03:18:52;;;;;;;10.73;9.00;;;;;;;22.86;58.46;98414.97;7002627;28;20294;-80
2022/08/26 03:22:15;;;;;;;13.87;11.00;;;;;;;22.29;58.77;98326.28;7003000;28;20207;-80
2022/08/26 03:25:37;;;;;;;13.80;10.23;;;;;;;22.60;58.63;98374.34;7002900;28;20233;-80
2022/08/26 03:32:38;;;;;;;11.30;10.07;;;;;;;22.66;59.38;98417.94;7002237;28;20218;-79
2022/08/26 03:36:02;;;;;;;16.63;10.50;;;;;;;22.58;59.08;98391.09;7001454;28;20240;-79
2022/08/26 03:39:25;;;;;;;15.27;11.03;;;;;;;22.74;58.73;98421.97;7002007;28;20198;-80
2022/08/26 03:42:47;;;;;;;14.23;9.93;;;;;;;22.90;58.62;98424.25;7002245;28;20290;-79
2022/08/26 03:46:10;;;;;;;13.83;10.40;;;;;;;22.84;58.03;98400.69;7003008;28;20276;-79
2022/08/26 03:49:33;;;;;;;14.37;11.83;;;;;;;22.68;58.63;98425.91;7002240;28;20261;-79
2022/08/26 03:52:55;;;;;;;12.73;11.00;;;;;;;22.69;58.63;98411.88;7002430;28;20283;-80
2022/08/26 03:56:18;;;;;;;12.73;10.73;;;;;;;22.90;57.90;98401.44;7002157;28;20244;-79
2022/08/26 03:59:39;;;;;;;14.60;10.23;;;;;;;22.80;57.77;98421.66;7001132;28;20237;-80
2022/08/26 04:03:01;;;;;;;14.80;10.93;;;;;;;22.76;58.45;98417.00;7000833;28;20252;-79
2022/08/26 04:06:23;;;;;;;15.83;11.33;;;;;;;22.47;58.75;98386.84;7001920;28;20225;-80
2022/08/26 04:09:44;;;;;;;16.20;11.33;;;;;;;22.40;59.72;98400.06;7001204;28;20297;-79
2022/08/26 04:13:07;;;;;;;17.20;11.50;;;;;;;22.50;59.72;98418.41;7006585;28;20716;-80
2022/08/26 04:16:29;;;;;;;15.70;12.13;;;;;;;22.39;60.17;98412.16;7009232;28;20231;-79
2022/08/26 04:19:51;;;;;;;16.33;12.10;;;;;;;22.23;60.63;98407.09;7008846;28;20249;-80
2022/08/26 04:23:12;;;;;;;14.60;11.23;;;;;;;22.44;60.06;98422.31;7024476;28;20654;-80
2022/08/26 04:26:36;;;;;;;14.57;11.23;;;;;;;22.47;60.29;98432.72;7038229;28;20229;-80
2022/08/26 04:29:59;;;;;;;16.30;12.83;;;;;;;22.36;60.49;98431.16;7037099;28;20269;-79
2022/08/26 04:33:21;;;;;;;14.60;11.73;;;;;;;22.22;60.75;98417.28;7036885;28;20297;-80
2022/08/26 04:36:43;;;;;;;18.23;12.43;;;;;;;22.39;60.23;98412.16;7035112;28;20202;-79
2022/08/26 04:40:08;;;;;;;14.40;11.80;;;;;;;22.34;60.56;98431.44;7027475;28;20202;-79
2022/08/26 04:43:30;;;;;;;14.67;11.97;;;;;;;22.62;60.77;98419.66;7007977;28;20210;-79
2022/08/26 04:46:54;;;;;;;16.57;11.93;;;;;;;22.18;61.50;98404.44;7008159;28;20306;-79
2022/08/26 04:50:16;;;;;;;16.10;11.47;;;;;;;22.17;61.65;98422.81;7006821;28;20348;-79
2022/08/26 04:53:37;;;;;;;12.67;11.33;;;;;;;21.94;62.80;98418.06;7007553;28;20227;-78
2022/08/26 04:56:59;;;;;;;16.77;11.30;;;;;;;22.68;60.55;98403.91;7007074;28;20308;-79
2022/08/26 05:00:21;;;;;;;12.83;10.73;;;;;;;22.92;58.79;98405.56;7006708;28;20298;-78
2022/08/26 05:03:44;;;;;;;10.53;9.33;;;;;;;23.39;58.27;98419.25;7029139;28;20229;-78
2022/08/26 05:07:06;;;;;;;11.53;9.77;;;;;;;23.56;57.39;98419.56;7006106;28;20201;-77
2022/08/26 05:10:28;;;;;;;11.70;8.70;;;;;;;23.68;56.83;98417.16;7022836;28;20218;-78
2022/08/26 05:13:50;;;;;;;13.17;9.77;;;;;;;23.71;56.94;98413.81;7019971;28;20222;-78
2022/08/26 05:17:11;;;;;;;14.43;9.30;;;;;;;23.80;57.16;98424.97;7020234;28;20670;-78
2022/08/26 05:20:39;;;;;;;10.40;9.13;;;;;;;24.15;55.87;98427.16;7033815;28;20819;-78
2022/08/26 05:24:01;;;;;;;12.57;9.57;;;;;;;24.06;56.19;98421.53;7034062;28;20638;-79
2022/08/26 05:27:22;;;;;;;9.30;8.30;;;;;;;24.24;55.95;98428.13;7034762;28;20199;-78
2022/08/26 05:30:44;;;;;;;10.70;9.50;;;;;;;23.65;57.57;98425.22;7033683;28;20232;-79
2022/08/26 05:34:06;;;;;;;11.23;8.87;;;;;;;24.03;56.77;98413.06;7033831;28;20240;-79
2022/08/26 05:37:29;;;;;;;11.63;9.97;;;;;;;24.13;57.35;98426.66;7013002;28;20210;-79
2022/08/26 05:40:51;;;;;;;12.83;9.20;;;;;;;24.45;55.71;98423.88;7031572;28;20210;-79
2022/08/26 05:44:15;;;;;;;12.60;9.23;;;;;;;24.52;55.30;98432.56;7033611;28;20220;-79
2022/08/26 05:47:36;;;;;;;10.67;9.50;;;;;;;24.86;54.77;98427.53;7029146;28;20581;-79
2022/08/26 05:51:03;;;;;;;11.70;8.60;;;;;;;25.21;53.36;98429.56;7031823;28;20199;-79
2022/08/26 05:54:26;;;;;;;7.70;7.00;;;;;;;25.59;52.27;98431.75;7017340;28;20228;-79
2022/08/26 05:57:48;;;;;;;10.43;7.23;;;;;;;25.86;51.19;98433.63;7033966;28;20201;-79
2022/08/26 06:01:14;;;;;;;9.40;6.60;;;;;;;26.34;49.67;98431.88;7033952;28;20609;-79
2022/08/26 06:04:35;;;;;;;8.53;6.67;;;;;;;26.55;48.51;98416.44;7034425;28;20231;-80
2022/08/26 06:08:13;;;;;;;7.30;6.40;;;;;;;26.63;49.19;98427.56;7035543;28;20232;-79
2022/08/26 06:11:36;;;;;;;8.17;7.07;;;;;;;26.64;49.48;98429.19;7037690;28;20265;-80
2022/08/26 06:14:57;;;;;;;7.30;6.60;;;;;;;26.09;49.96;98440.81;7009211;28;20264;-79
2022/08/26 06:18:21;;;;;;;7.90;7.13;;;;;;;26.61;49.93;98451.94;7006461;28;20210;-79
2022/08/26 06:21:48;;;;;;;7.97;6.90;;;;;;;26.29;49.83;98430.06;7008791;28;20244;-79
2022/08/26 06:28:51;;;;;;;9.37;6.43;;;;;;;26.35;49.17;98453.69;7003920;28;20193;-79
2022/08/26 06:32:13;;;;;;;7.70;6.07;;;;;;;26.70;48.55;98447.28;7004248;28;20344;-79
2022/08/26 06:35:38;;;;;;;6.53;5.93;;;;;;;27.23;47.95;98447.19;7005820;28;20226;-79
2022/08/26 06:39:03;;;;;;;8.23;5.50;;;;;;;27.74;46.68;98450.06;7031411;28;20208;-80
2022/08/26 06:42:24;;;;;;;5.53;5.00;;;;;;;28.35;44.99;98447.78;7032390;28;20286;-79
2022/08/26 06:45:48;;;;;;;5.03;4.53;;;;;;;29.02;42.59;98448.00;7032766;28;20226;-80
2022/08/26 06:49:09;;;;;;;8.33;4.60;;;;;;;29.40;41.87;98454.31;7030737;28;20721;-80
2022/08/26 06:52:31;;;;;;;5.03;4.50;;;;;;;30.14;39.53;98439.44;7014943;28;20235;-79
2022/08/26 06:55:53;;;;;;;5.43;4.20;;;;;;;30.19;39.26;98450.34;7003540;28;20232;-80
2022/08/26 06:59:14;;;;;;;5.27;4.40;;;;;;;30.31;38.35;98432.91;7003122;28;20214;-80
2022/08/26 07:02:38;;;;;;;4.93;3.93;;;;;;;30.65;37.54;98446.50;7003386;28;20206;-80
2022/08/26 07:06:03;;;;;;;4.60;4.13;;;;;;;31.03;36.85;98438.69;7024113;28;20300;-82
2022/08/26 07:09:26;;;;;;;4.63;4.23;;;;;;;30.55;37.65;98444.13;7017374;28;20207;-81
2022/08/26 07:12:48;;;;;;;7.93;4.40;;;;;;;30.75;38.19;98451.63;7002736;28;20231;-81
2022/08/26 07:16:12;;;;;;;5.77;4.20;;;;;;;31.22;36.98;98455.66;7003101;28;20235;-81
2022/08/26 07:19:35;;;;;;;4.40;4.00;;;;;;;31.68;35.32;98452.41;7002898;28;20203;-80
2022/08/26 07:22:57;;;;;;;5.13;4.50;;;;;;;31.33;36.38;98451.25;7003293;28;20209;-80
2022/08/26 07:26:21;;;;;;;4.70;4.30;;;;;;;31.70;35.41;98450.06;7006658;28;20221;-81
2022/08/26 07:29:43;;;;;;;6.00;4.27;;;;;;;31.62;35.27;98426.75;7002627;28;20250;-80
2022/08/26 07:33:05;;;;;;;4.73;4.10;;;;;;;31.62;35.88;98439.84;7019140;28;20347;-80
2022/08/26 07:36:29;;;;;;;6.33;3.80;;;;;;;32.22;34.54;98437.75;7003293;28;20644;-81
2022/08/26 07:39:50;;;;;;;5.60;4.40;;;;;;;32.10;34.95;98450.94;7002426;28;20236;-81
2022/08/26 07:43:12;;;;;;;5.87;4.27;;;;;;;32.15;34.38;98442.31;7003086;28;20206;-80
2022/08/26 07:46:33;;;;;;;6.37;4.10;;;;;;;32.01;34.85;98445.50;7028717;28;20262;-80
2022/08/26 07:49:56;;;;;;;5.80;3.90;;;;;;;32.44;34.64;98448.38;7008767;28;20204;-81
2022/08/26 07:53:20;;;;;;;4.03;3.73;;;;;;;32.57;34.35;98449.97;7034626;28;20242;-80
2022/08/26 07:56:41;;;;;;;4.87;4.47;;;;;;;32.34;34.48;98462.03;7037365;28;20362;-80
2022/08/26 08:00:06;;;;;;;7.00;4.70;;;;;;;31.44;35.43;98461.56;7036387;28;20287;-81
2022/08/26 08:03:27;;;;;;;5.67;4.30;;;;;;;31.96;34.94;98442.94;7017488;28;20254;-80
2022/08/26 08:06:49;;;;;;;4.37;3.97;;;;;;;32.08;34.38;98436.53;7008652;28;20382;-81
2022/08/26 08:10:13;;;;;;;4.97;3.90;;;;;;;32.63;34.18;98445.75;7007332;28;20205;-80
2022/08/26 08:13:36;;;;;;;5.80;4.17;;;;;;;33.73;32.41;98442.59;7007269;28;20224;-81
2022/08/26 08:16:58;;;;;;;4.50;3.90;;;;;;;34.13;32.03;98447.94;7022276;28;20236;-82
2022/08/26 08:20:21;;;;;;;5.43;4.27;;;;;;;33.33;32.82;98447.66;7035251;28;20216;-81
2022/08/26 08:23:42;;;;;;;5.17;4.33;;;;;;;33.99;30.88;98431.63;7035414;28;20204;-81
2022/08/26 08:27:06;;;;;;;7.90;4.37;;;;;;;34.31;30.10;98441.53;7009322;28;20293;-80
2022/08/26 08:30:27;;;;;;;5.00;4.47;;;;;;;33.89;31.05;98451.00;7006846;28;20229;-81
2022/08/26 08:33:49;;;;;;;5.10;4.60;;;;;;;33.09;31.84;98399.47;7008440;28;20247;-81
2022/08/26 08:37:11;;;;;;;5.43;4.30;;;;;;;34.46;30.27;98440.66;7035475;28;20262;-81
2022/08/26 08:40:32;;;;;;;5.07;4.50;;;;;;;34.20;31.24;98442.47;7034967;28;20301;-81
2022/08/26 08:43:55;;;;;;;7.27;4.47;;;;;;;34.72;30.80;98418.34;7035124;28;20567;-81
2022/08/26 08:47:20;;;;;;;7.93;4.60;;;;;;;34.74;30.94;98430.00;7016157;28;20629;-81
2022/08/26 08:50:44;;;;;;;7.00;5.30;;;;;;;35.25;30.03;98433.38;7006324;28;20658;-81
2022/08/26 08:54:06;;;;;;;7.07;4.63;;;;;;;34.50;30.52;98399.50;7010766;28;20229;-80
2022/08/26 08:57:33;;;;;;;9.67;5.17;;;;;;;35.46;29.78;98423.28;7006527;28;20237;-81
2022/08/26 09:01:00;;;;;;;6.20;5.10;;;;;;;34.36;31.36;98426.44;7007647;28;20194;-80
2022/08/26 09:04:43;;;;;;;6.00;4.80;;;;;;;35.13;30.03;98433.53;7006683;28;20249;-81
2022/08/26 09:08:07;;;;;;;6.43;5.23;;;;;;;35.81;28.85;98390.19;7030299;28;20233;-81
2022/08/26 09:11:29;;;;;;;8.27;4.77;;;;;;;36.31;28.60;98416.94;7035167;28;20213;-80
2022/08/26 09:14:53;;;;;;;7.70;4.97;;;;;;;36.39;28.63;98413.81;7034021;28;20256;-81
2022/08/26 09:18:25;;;;;;;7.23;5.13;;;;;;;36.34;28.44;98376.84;7034202;28;20200;-80
2022/08/26 09:21:55;;;;;;;6.47;5.27;;;;;;;36.42;28.79;98401.81;7035111;28;20188;-80
2022/08/26 09:25:17;;;;;;;7.97;5.07;;;;;;;35.94;29.62;98408.41;7035358;28;20220;-80
2022/08/26 09:28:41;;;;;;;6.27;5.17;;;;;;;36.78;28.65;98397.41;7034201;28;20217;-80
2022/08/26 09:32:20;;;;;;;7.87;5.50;;;;;;;36.78;28.57;98392.59;7037914;28;20411;-80
2022/08/26 09:35:47;;;;;;;10.13;5.50;;;;;;;36.74;27.82;98390.94;7037655;28;20225;-80
2022/08/26 09:39:27;;;;;;;9.27;5.40;;;;;;;37.69;27.22;98387.75;7032985;28;20218;-81
2022/08/26 09:43:06;;;;;;;9.80;5.80;;;;;;;37.21;27.92;98377.75;7033139;28;20695;-79
2022/08/26 09:46:28;;;;;;;8.37;5.73;;;;;;;35.02;29.47;98362.47;7032486;28;20264;-79
2022/08/26 09:49:57;;;;;;;12.93;5.20;;;;;;;35.18;29.36;98374.31;7032905;28;20223;-79
2022/08/26 09:53:22;;;;;;;13.03;5.30;;;;;;;34.28;30.08;98340.69;7032855;28;20259;-79
2022/08/26 09:56:45;;;;;;;9.67;6.03;;;;;;;35.12;29.88;98351.41;7032615;28;20221;-80
2022/08/26 10:00:23;;;;;;;9.70;5.93;;;;;;;35.90;29.48;98339.38;7032937;28;20193;-79
2022/08/26 10:03:45;;;;;;;11.27;5.47;;;;;;;36.57;27.47;98335.34;7005918;28;20275;-79
2022/08/26 10:07:07;;;;;;;13.53;5.97;;;;;;;36.85;27.25;98332.84;7005975;28;20283;-82
2022/08/26 10:10:33;;;;;;;12.27;6.00;;;;;;;37.22;26.73;98325.94;7003751;28;20294;-79
2022/08/26 10:13:58;;;;;;;8.33;5.77;;;;;;;37.66;26.68;98329.44;7005021;28;20233;-78
2022/08/26 10:17:25;;;;;;;11.63;6.17;;;;;;;37.41;26.68;98322.03;7011405;28;20231;-78
2022/08/26 10:20:55;;;;;;;13.13;6.57;;;;;;;37.60;26.62;98299.28;7031400;28;20182;-80
2022/08/26 10:24:21;;;;;;;9.60;5.30;;;;;;;37.38;26.05;98317.19;7032165;28;20227;-78
2022/08/26 10:27:59;;;;;;;11.57;5.40;;;;;;;37.31;25.77;98326.38;7031361;28;20212;-78
2022/08/26 10:31:26;;;;;;;14.20;5.57;;;;;;;36.78;26.73;98330.75;7031243;28;20373;-78
2022/08/26 10:34:47;;;;;;;13.20;5.90;;;;;;;36.89;26.83;98323.22;7022894;28;20237;-79
2022/08/26 10:38:12;;;;;;;9.37;5.47;;;;;;;36.30;27.12;98320.63;7019966;28;20205;-79
2022/08/26 10:41:37;;;;;;;12.03;6.40;;;;;;;35.61;27.87;98332.53;7032562;28;20204;-78
2022/08/26 10:45:06;;;;;;;7.67;5.03;;;;;;;34.10;30.26;98328.31;7032622;28;20234;-80
2022/08/26 10:48:32;;;;;;;7.53;5.20;;;;;;;32.96;31.96;98323.31;7009623;28;20686;-79
2022/08/26 10:51:59;;;;;;;10.20;5.63;;;;;;;33.02;32.53;98309.91;7003994;28;20684;-79
2022/08/26 10:55:24;;;;;;;9.47;5.60;;;;;;;33.32;32.85;98322.22;7006086;28;20293;-79
2022/08/26 10:58:57;;;;;;;10.43;6.50;;;;;;;33.33;33.81;98315.44;7030980;28;20233;-79
2022/08/26 11:02:25;;;;;;;8.47;5.90;;;;;;;32.61;34.72;98311.25;7032271;28;20200;-79
2022/08/26 11:06:16;;;;;;;6.63;5.90;;;;;;;34.01;32.97;98305.34;7031917;28;20266;-80
2022/08/26 11:09:46;;;;;;;6.13;5.10;;;;;;;34.86;30.01;98300.97;7023551;28;20247;-80
2022/08/26 11:13:07;;;;;;;7.90;5.20;;;;;;;34.54;29.65;98299.56;7004961;28;20209;-80
2022/08/26 11:16:38;;;;;;;6.17;4.60;;;;;;;33.66;29.10;98288.63;7004133;28;20259;-80
2022/08/26 11:20:03;;;;;;;7.03;4.53;;;;;;;33.27;30.16;98300.97;7003933;28;20190;-80
2022/08/26 11:23:46;;;;;;;6.40;5.03;;;;;;;33.46;30.22;98267.44;7004449;28;20549;-81
2022/08/26 11:27:11;;;;;;;6.67;4.40;;;;;;;33.87;30.02;98282.69;7005337;28;20194;-81
2022/08/26 11:30:46;;;;;;;12.13;5.47;;;;;;;33.94;30.62;98291.19;7003975;28;20241;-81
2022/08/26 11:34:13;;;;;;;9.20;5.67;;;;;;;33.56;33.24;98302.38;7004699;28;20236;-81
2022/08/26 11:37:41;;;;;;;10.53;6.00;;;;;;;33.11;34.38;98280.59;7003344;28;20209;-81
2022/08/26 11:41:08;;;;;;;9.03;5.77;;;;;;;33.40;32.80;98284.84;7004691;28;20192;-81
2022/08/26 11:44:38;;;;;;;9.90;5.30;;;;;;;33.97;31.72;98287.69;7004349;28;20261;-82
2022/08/26 11:48:14;;;;;;;11.27;5.83;;;;;;;33.77;31.99;98286.06;7003335;28;20232;-81
2022/08/26 11:51:36;;;;;;;13.37;6.20;;;;;;;33.53;32.67;98295.53;7004048;28;20671;-81
2022/08/26 11:55:03;;;;;;;8.67;5.37;;;;;;;33.26;32.91;98288.09;7003686;28;20317;-81
2022/08/26 11:58:26;;;;;;;10.13;5.77;;;;;;;33.41;33.75;98314.41;7021653;28;20300;-81
2022/08/26 12:01:50;;;;;;;11.50;6.57;;;;;;;31.62;36.56;98325.56;7013414;28;20206;-81
2022/08/26 12:05:13;;;;;;;8.27;5.53;;;;;;;30.79;36.95;98305.81;7003545;28;20236;-81
2022/08/26 12:08:35;;;;;;;11.03;5.70;;;;;;;31.53;36.03;98310.94;7002906;28;20220;-81
2022/08/26 12:12:12;;;;;;;7.67;5.23;;;;;;;31.03;37.44;98311.41;7003083;28;20677;-81
2022/08/26 12:15:34;;;;;;;9.63;5.80;;;;;;;30.36;37.70;98319.44;7017590;28;20226;-81
2022/08/26 12:18:57;;;;;;;13.43;6.60;;;;;;;31.33;37.15;98328.66;7027443;28;20193;-81
2022/08/26 12:22:23;;;;;;;9.13;5.67;;;;;;;31.68;38.52;98305.47;7004665;28;20201;-81
2022/08/26 12:25:45;;;;;;;9.13;6.17;;;;;;;30.87;41.26;98306.84;7005194;28;20283;-81
2022/08/26 12:29:09;;;;;;;11.57;6.03;;;;;;;30.66;42.81;98287.50;7003449;28;20198;-81
2022/08/26 12:32:31;;;;;;;11.57;7.20;;;;;;;30.90;44.62;98326.47;7047888;28;20202;-80
2022/08/26 12:35:53;;;;;;;11.03;7.37;;;;;;;30.45;46.46;98306.25;7050384;28;20247;-81
2022/08/26 12:39:24;;;;;;;10.73;7.23;;;;;;;30.32;48.28;98312.13;7035609;28;20209;-81
2022/08/26 12:42:46;;;;;;;12.33;6.53;;;;;;;30.41;47.83;98310.88;7031814;28;20196;-82
2022/08/26 12:46:11;;;;;;;10.63;6.70;;;;;;;30.64;46.89;98298.16;7014249;28;20256;-82
2022/08/26 12:49:33;;;;;;;10.90;6.63;;;;;;;31.09;45.54;98222.81;7021004;28;20209;-83
2022/08/26 12:52:59;;;;;;;13.00;6.90;;;;;;;31.43;46.04;98264.09;7009200;28;20325;-81
2022/08/26 12:56:27;;;;;;;13.83;6.80;;;;;;;32.22;44.12;98273.13;7007717;28;20232;-81
2022/08/26 12:59:48;;;;;;;10.80;7.77;;;;;;;32.41;43.41;98244.53;7007738;28;20264;-81
2022/08/26 13:03:44;;;;;;;10.43;6.93;;;;;;;33.11;41.46;98266.63;7008439;28;20228;-81
2022/08/26 13:07:20;;;;;;;10.30;6.20;;;;;;;33.37;37.96;98257.66;6977473;28;20206;-81
2022/08/26 13:10:44;;;;;;;10.00;6.67;;;;;;;33.69;36.61;98250.72;6996425;28;20227;-81
2022/08/26 13:14:07;;;;;;;13.67;6.67;;;;;;;34.72;35.25;98253.06;7031832;28;20221;-81
2022/08/26 13:17:29;;;;;;;11.27;6.23;;;;;;;34.23;33.42;98238.22;7036394;28;20273;-81
2022/08/26 13:20:52;;;;;;;12.87;6.70;;;;;;;34.15;32.65;98230.88;7034310;28;20200;-81
2022/08/26 13:24:16;;;;;;;15.10;6.77;;;;;;;33.89;33.31;98218.78;7037281;28;20590;-81
2022/08/26 13:27:38;;;;;;;11.67;6.27;;;;;;;33.82;33.47;98222.25;7020702;28;20197;-81
2022/08/26 13:31:00;;;;;;;11.87;6.07;;;;;;;33.42;33.77;98190.28;7008441;28;20239;-81
2022/08/26 13:34:23;;;;;;;7.97;5.77;;;;;;;32.67;35.67;98225.25;7008366;28;20309;-81
2022/08/26 13:37:46;;;;;;;11.27;6.00;;;;;;;32.83;35.75;98221.25;7007260;28;20266;-81
2022/08/26 13:41:07;;;;;;;10.57;6.67;;;;;;;34.59;31.70;98220.84;7007551;28;20206;-81
2022/08/26 13:44:29;;;;;;;9.93;6.17;;;;;;;34.24;32.34;98225.00;7007514;28;20229;-81
2022/08/26 13:47:50;;;;;;;10.33;6.23;;;;;;;33.31;34.46;98212.38;7017351;28;20294;-81
2022/08/26 13:51:12;;;;;;;16.83;6.67;;;;;;;33.03;34.03;98222.94;7025198;28;20228;-80
2022/08/26 13:54:35;;;;;;;11.93;6.50;;;;;;;33.52;33.70;98200.84;7013070;28;20319;-81
2022/08/26 13:57:56;;;;;;;9.10;6.57;;;;;;;32.54;33.85;98196.63;7034802;28;20189;-81
2022/08/26 14:01:18;;;;;;;13.10;6.00;;;;;;;33.07;33.96;98203.47;7028003;28;20197;-81
2022/08/26 14:04:39;;;;;;;12.83;6.10;;;;;;;33.81;33.42;98208.63;7006197;28;20222;-81
2022/08/26 14:08:01;;;;;;;10.90;6.40;;;;;;;34.81;32.06;98192.00;7005881;28;20205;-81
2022/08/26 14:11:24;;;;;;;19.57;6.50;;;;;;;35.68;30.47;98178.38;7006811;28;20205;-81
2022/08/26 14:14:47;;;;;;;13.67;6.07;;;;;;;35.29;29.69;98185.50;7005668;28;20225;-81
2022/08/26 14:18:10;;;;;;;8.50;5.53;;;;;;;33.71;31.23;98182.03;7022080;28;20775;-81
2022/08/26 14:21:34;;;;;;;9.87;5.80;;;;;;;33.63;31.18;98185.91;7034964;28;20270;-81
2022/08/26 14:24:56;;;;;;;10.47;5.77;;;;;;;33.61;29.95;98182.66;7034374;28;20263;-81
2022/08/26 14:28:19;;;;;;;10.73;5.70;;;;;;;33.74;30.72;98180.50;7033373;28;20201;-81
2022/08/26 14:31:40;;;;;;;11.60;5.93;;;;;;;33.99;30.18;98190.19;7034606;28;20228;-81
2022/08/26 14:35:02;;;;;;;8.50;5.30;;;;;;;34.20;29.71;98191.34;7034198;28;20224;-80
2022/08/26 14:38:24;;;;;;;10.27;6.43;;;;;;;33.80;30.12;98193.84;7032935;28;20303;-80
2022/08/26 14:41:48;;;;;;;11.67;5.47;;;;;;;32.99;31.63;98184.91;7054493;28;20192;-80
2022/08/26 14:45:16;;;;;;;13.67;6.30;;;;;;;33.83;31.41;98198.69;7038093;28;20768;-80
2022/08/26 14:48:38;;;;;;;11.47;5.90;;;;;;;34.01;31.01;98199.81;7006116;28;20198;-81
2022/08/26 14:51:59;;;;;;;12.53;6.20;;;;;;;33.49;30.58;98204.38;7006338;28;20295;-80
2022/08/26 14:55:21;;;;;;;10.27;6.23;;;;;;;33.87;29.83;98174.41;7004055;28;20245;-81
2022/08/26 14:58:42;;;;;;;10.00;6.40;;;;;;;34.13;30.64;98198.84;7004880;28;20689;-80
2022/08/26 15:02:07;;;;;;;10.03;6.80;;;;;;;33.76;30.82;98166.94;7027488;28;20309;-80
2022/08/26 15:05:29;;;;;;;9.57;5.83;;;;;;;33.92;30.88;98190.88;7033448;28;20248;-81
2022/08/26 15:08:50;;;;;;;13.00;6.23;;;;;;;33.64;31.01;98172.72;7031922;28;20683;-80
2022/08/26 15:12:12;;;;;;;10.17;6.13;;;;;;;34.13;30.61;98196.03;7020447;28;20232;-81
2022/08/26 15:15:33;;;;;;;12.53;6.13;;;;;;;34.10;32.29;98182.78;7005584;28;20232;-80
2022/08/26 15:18:56;;;;;;;15.07;6.70;;;;;;;32.96;34.07;98183.66;7014725;28;20204;-81
2022/08/26 15:22:18;;;;;;;9.90;6.67;;;;;;;33.51;33.64;98197.25;7005649;28;20284;-81
2022/08/26 15:25:42;;;;;;;13.80;6.63;;;;;;;33.37;33.69;98196.16;7004175;28;20260;-80
2022/08/26 15:29:04;;;;;;;9.33;5.83;;;;;;;33.34;33.51;98202.47;7005150;28;20879;-80
2022/08/26 15:32:25;;;;;;;11.03;6.20;;;;;;;33.45;33.66;98209.09;7004537;28;20212;-80
2022/08/26 15:35:48;;;;;;;11.73;6.53;;;;;;;33.24;33.85;98195.44;7027793;28;20319;-81
2022/08/26 15:39:10;;;;;;;14.20;6.27;;;;;;;33.39;33.52;98194.59;7029951;28;20239;-80
2022/08/26 15:42:32;;;;;;;12.50;6.20;;;;;;;33.55;33.71;98200.09;7027427;28;20249;-80
2022/08/26 15:45:54;;;;;;;11.00;6.03;;;;;;;33.40;35.66;98182.25;7026625;28;20249;-80
2022/08/26 15:49:16;;;;;;;10.70;6.50;;;;;;;33.28;36.61;98185.19;7036723;28;20207;-80
2022/08/26 15:52:40;;;;;;;11.67;6.93;;;;;;;33.06;37.28;98190.63;7031390;28;20205;-80
2022/08/26 15:56:02;;;;;;;9.50;6.37;;;;;;;33.00;37.59;98172.56;7020485;28;20236;-80
2022/08/26 15:59:24;;;;;;;10.73;7.30;;;;;;;33.05;37.37;98181.47;7003136;28;20654;-80
2022/08/26 16:02:45;;;;;;;13.87;7.10;;;;;;;33.01;38.14;98172.19;7003587;28;20208;-80